sensor_id;sensor_type;location;lat;lon;timestamp;temperature;humidity
65199;HTU21D;52170;45.018;37.910;2023-05-10T00:00:31;8.97;89.31
65199;HTU21D;52170;45.018;37.910;2023-05-10T00:02:56;8.98;89.29
65199;HTU21D;52170;45.018;37.910;2023-05-10T00:05:22;8.96;89.30
65199;HTU21D;52170;45.018;37.910;2023-05-10T00:07:48;8.97;89.31
65199;HTU21D;52170;45.018;37.910;2023-05-10T00:10:14;8.96;89.33
65199;HTU21D;52170;45.018;37.910;2023-05-10T00:12:39;8.94;89.34
65199;HTU21D;52170;45.018;37.910;2023-05-10T00:15:05;8.94;89.36
65199;HTU21D;52170;45.018;37.910;2023-05-10T00:17:31;8.94;89.37
65199;HTU21D;52170;45.018;37.910;2023-05-10T00:19:57;8.94;89.36
65199;HTU21D;52170;45.018;37.910;2023-05-10T00:22:22;8.92;89.36
65199;HTU21D;52170;45.018;37.910;2023-05-10T00:24:48;8.91;89.39
65199;HTU21D;52170;45.018;37.910;2023-05-10T00:27:14;8.89;89.41
65199;HTU21D;52170;45.018;37.910;2023-05-10T00:29:40;8.87;89.43
65199;HTU21D;52170;45.018;37.910;2023-05-10T00:32:05;8.85;89.48
65199;HTU21D;52170;45.018;37.910;2023-05-10T00:34:31;8.83;89.53
65199;HTU21D;52170;45.018;37.910;2023-05-10T00:36:57;8.83;89.54
65199;HTU21D;52170;45.018;37.910;2023-05-10T00:39:22;8.86;89.50
65199;HTU21D;52170;45.018;37.910;2023-05-10T00:41:48;8.85;89.47
65199;HTU21D;52170;45.018;37.910;2023-05-10T00:44:15;8.82;89.47
65199;HTU21D;52170;45.018;37.910;2023-05-10T00:46:41;8.81;89.48
65199;HTU21D;52170;45.018;37.910;2023-05-10T00:49:07;8.80;89.50
65199;HTU21D;52170;45.018;37.910;2023-05-10T00:51:32;8.81;89.50
65199;HTU21D;52170;45.018;37.910;2023-05-10T00:53:59;8.81;89.44
65199;HTU21D;52170;45.018;37.910;2023-05-10T00:56:25;8.81;89.47
65199;HTU21D;52170;45.018;37.910;2023-05-10T00:58:52;8.81;89.46
65199;HTU21D;52170;45.018;37.910;2023-05-10T01:01:17;8.82;89.44
65199;HTU21D;52170;45.018;37.910;2023-05-10T01:03:44;8.82;89.42
65199;HTU21D;52170;45.018;37.910;2023-05-10T01:06:10;8.80;89.45
65199;HTU21D;52170;45.018;37.910;2023-05-10T01:08:36;8.81;89.44
65199;HTU21D;52170;45.018;37.910;2023-05-10T01:11:02;8.80;89.47
65199;HTU21D;52170;45.018;37.910;2023-05-10T01:13:38;8.81;89.45
65199;HTU21D;52170;45.018;37.910;2023-05-10T01:16:04;8.82;89.44
65199;HTU21D;52170;45.018;37.910;2023-05-10T01:18:35;8.81;89.46
65199;HTU21D;52170;45.018;37.910;2023-05-10T01:21:04;8.81;89.45
65199;HTU21D;52170;45.018;37.910;2023-05-10T01:23:44;8.81;89.43
65199;HTU21D;52170;45.018;37.910;2023-05-10T01:33:59;8.77;89.62
65199;HTU21D;52170;45.018;37.910;2023-05-10T01:39:43;8.75;89.68
65199;HTU21D;52170;45.018;37.910;2023-05-10T01:41:41;8.76;89.66
65199;HTU21D;52170;45.018;37.910;2023-05-10T01:46:58;8.75;89.63
65199;HTU21D;52170;45.018;37.910;2023-05-10T01:49:31;8.76;89.62
65199;HTU21D;52170;45.018;37.910;2023-05-10T01:52:04;8.76;89.60
65199;HTU21D;52170;45.018;37.910;2023-05-10T01:54:31;8.74;89.59
65199;HTU21D;52170;45.018;37.910;2023-05-10T01:57:02;8.75;89.60
65199;HTU21D;52170;45.018;37.910;2023-05-10T01:59:30;8.72;89.63
65199;HTU21D;52170;45.018;37.910;2023-05-10T02:02:01;8.72;89.69
65199;HTU21D;52170;45.018;37.910;2023-05-10T02:04:27;8.72;89.72
65199;HTU21D;52170;45.018;37.910;2023-05-10T02:06:53;8.71;89.71
65199;HTU21D;52170;45.018;37.910;2023-05-10T02:09:20;8.72;89.70
65199;HTU21D;52170;45.018;37.910;2023-05-10T02:11:47;8.71;89.70
65199;HTU21D;52170;45.018;37.910;2023-05-10T02:14:13;8.73;89.66
65199;HTU21D;52170;45.018;37.910;2023-05-10T02:16:40;8.74;89.61
65199;HTU21D;52170;45.018;37.910;2023-05-10T02:19:06;8.72;89.63
65199;HTU21D;52170;45.018;37.910;2023-05-10T02:21:32;8.73;89.63
65199;HTU21D;52170;45.018;37.910;2023-05-10T02:23:59;8.72;89.62
65199;HTU21D;52170;45.018;37.910;2023-05-10T02:26:28;8.73;89.63
65199;HTU21D;52170;45.018;37.910;2023-05-10T02:28:54;8.74;89.59
65199;HTU21D;52170;45.018;37.910;2023-05-10T02:31:20;8.75;89.58
65199;HTU21D;52170;45.018;37.910;2023-05-10T02:33:47;8.75;89.58
65199;HTU21D;52170;45.018;37.910;2023-05-10T02:36:13;8.73;89.57
65199;HTU21D;52170;45.018;37.910;2023-05-10T02:38:39;8.72;89.60
65199;HTU21D;52170;45.018;37.910;2023-05-10T02:41:05;8.71;89.61
65199;HTU21D;52170;45.018;37.910;2023-05-10T02:43:33;8.71;89.65
65199;HTU21D;52170;45.018;37.910;2023-05-10T02:46:00;8.72;89.75
65199;HTU21D;52170;45.018;37.910;2023-05-10T02:48:27;8.72;89.76
65199;HTU21D;52170;45.018;37.910;2023-05-10T02:50:53;8.68;89.77
65199;HTU21D;52170;45.018;37.910;2023-05-10T02:53:31;8.67;89.81
65199;HTU21D;52170;45.018;37.910;2023-05-10T02:55:59;8.66;89.83
65199;HTU21D;52170;45.018;37.910;2023-05-10T02:58:26;8.67;89.82
65199;HTU21D;52170;45.018;37.910;2023-05-10T03:00:51;8.67;89.84
65199;HTU21D;52170;45.018;37.910;2023-05-10T03:03:17;8.67;89.85
65199;HTU21D;52170;45.018;37.910;2023-05-10T03:05:43;8.70;89.92
65199;HTU21D;52170;45.018;37.910;2023-05-10T03:08:09;8.70;89.88
65199;HTU21D;52170;45.018;37.910;2023-05-10T03:10:47;8.72;89.85
65199;HTU21D;52170;45.018;37.910;2023-05-10T03:13:25;8.73;89.87
65199;HTU21D;52170;45.018;37.910;2023-05-10T03:15:59;8.75;89.87
65199;HTU21D;52170;45.018;37.910;2023-05-10T03:18:28;8.78;89.93
65199;HTU21D;52170;45.018;37.910;2023-05-10T03:20:57;8.78;90.00
65199;HTU21D;52170;45.018;37.910;2023-05-10T03:25:50;8.82;90.10
65199;HTU21D;52170;45.018;37.910;2023-05-10T03:28:16;8.83;90.13
65199;HTU21D;52170;45.018;37.910;2023-05-10T03:30:43;8.83;90.12
65199;HTU21D;52170;45.018;37.910;2023-05-10T03:33:10;8.88;90.29
65199;HTU21D;52170;45.018;37.910;2023-05-10T03:35:40;8.89;90.31
65199;HTU21D;52170;45.018;37.910;2023-05-10T03:38:07;8.89;90.28
65199;HTU21D;52170;45.018;37.910;2023-05-10T03:40:32;8.93;90.44
65199;HTU21D;52170;45.018;37.910;2023-05-10T03:42:58;8.92;90.45
65199;HTU21D;52170;45.018;37.910;2023-05-10T03:45:25;8.94;90.34
65199;HTU21D;52170;45.018;37.910;2023-05-10T03:47:51;8.95;90.50
65199;HTU21D;52170;45.018;37.910;2023-05-10T03:50:16;8.97;90.53
65199;HTU21D;52170;45.018;37.910;2023-05-10T03:52:43;8.97;90.74
65199;HTU21D;52170;45.018;37.910;2023-05-10T03:55:09;8.98;90.58
65199;HTU21D;52170;45.018;37.910;2023-05-10T03:57:36;9.01;90.73
65199;HTU21D;52170;45.018;37.910;2023-05-10T04:00:03;9.03;90.55
65199;HTU21D;52170;45.018;37.910;2023-05-10T04:02:39;9.07;90.37
65199;HTU21D;52170;45.018;37.910;2023-05-10T04:05:06;9.10;90.39
65199;HTU21D;52170;45.018;37.910;2023-05-10T04:07:32;9.12;90.35
65199;HTU21D;52170;45.018;37.910;2023-05-10T04:09:58;9.10;90.43
65199;HTU21D;52170;45.018;37.910;2023-05-10T04:12:24;9.16;90.31
65199;HTU21D;52170;45.018;37.910;2023-05-10T04:14:49;9.20;90.21
65199;HTU21D;52170;45.018;37.910;2023-05-10T04:17:16;9.18;90.21
65199;HTU21D;52170;45.018;37.910;2023-05-10T04:19:42;9.19;90.22
65199;HTU21D;52170;45.018;37.910;2023-05-10T04:22:07;9.16;90.31
65199;HTU21D;52170;45.018;37.910;2023-05-10T04:24:33;9.15;90.51
65199;HTU21D;52170;45.018;37.910;2023-05-10T04:26:59;9.15;90.53
65199;HTU21D;52170;45.018;37.910;2023-05-10T04:29:25;9.21;90.47
65199;HTU21D;52170;45.018;37.910;2023-05-10T04:31:52;9.23;90.27
65199;HTU21D;52170;45.018;37.910;2023-05-10T04:34:20;9.26;90.55
65199;HTU21D;52170;45.018;37.910;2023-05-10T04:36:45;9.27;90.52
65199;HTU21D;52170;45.018;37.910;2023-05-10T04:39:11;9.27;90.47
65199;HTU21D;52170;45.018;37.910;2023-05-10T04:41:37;9.34;90.30
65199;HTU21D;52170;45.018;37.910;2023-05-10T04:44:03;9.38;90.06
65199;HTU21D;52170;45.018;37.910;2023-05-10T04:46:29;9.38;89.96
65199;HTU21D;52170;45.018;37.910;2023-05-10T04:48:55;9.40;90.05
65199;HTU21D;52170;45.018;37.910;2023-05-10T04:51:20;9.46;89.95
65199;HTU21D;52170;45.018;37.910;2023-05-10T04:53:46;9.49;89.90
65199;HTU21D;52170;45.018;37.910;2023-05-10T04:56:12;9.53;89.78
65199;HTU21D;52170;45.018;37.910;2023-05-10T04:58:37;9.57;89.75
65199;HTU21D;52170;45.018;37.910;2023-05-10T05:01:06;9.60;89.70
65199;HTU21D;52170;45.018;37.910;2023-05-10T05:03:33;9.61;89.70
65199;HTU21D;52170;45.018;37.910;2023-05-10T05:05:59;9.64;89.67
65199;HTU21D;52170;45.018;37.910;2023-05-10T05:08:25;9.70;89.64
65199;HTU21D;52170;45.018;37.910;2023-05-10T05:10:51;9.74;89.57
65199;HTU21D;52170;45.018;37.910;2023-05-10T05:13:16;9.78;89.45
65199;HTU21D;52170;45.018;37.910;2023-05-10T05:15:42;9.79;89.53
65199;HTU21D;52170;45.018;37.910;2023-05-10T05:18:08;9.78;89.57
65199;HTU21D;52170;45.018;37.910;2023-05-10T05:20:33;9.72;89.59
65199;HTU21D;52170;45.018;37.910;2023-05-10T05:23:00;9.70;89.63
65199;HTU21D;52170;45.018;37.910;2023-05-10T05:25:25;9.68;89.66
65199;HTU21D;52170;45.018;37.910;2023-05-10T05:27:51;9.70;89.61
65199;HTU21D;52170;45.018;37.910;2023-05-10T05:30:17;9.74;89.52
65199;HTU21D;52170;45.018;37.910;2023-05-10T05:32:43;9.78;89.36
65199;HTU21D;52170;45.018;37.910;2023-05-10T05:35:08;9.85;89.24
65199;HTU21D;52170;45.018;37.910;2023-05-10T05:37:34;9.96;89.02
65199;HTU21D;52170;45.018;37.910;2023-05-10T05:40:00;10.06;88.80
65199;HTU21D;52170;45.018;37.910;2023-05-10T05:42:27;10.09;88.71
65199;HTU21D;52170;45.018;37.910;2023-05-10T05:44:52;10.12;88.68
65199;HTU21D;52170;45.018;37.910;2023-05-10T05:47:18;10.12;88.75
65199;HTU21D;52170;45.018;37.910;2023-05-10T05:49:44;10.12;88.83
65199;HTU21D;52170;45.018;37.910;2023-05-10T05:52:12;10.13;88.82
65199;HTU21D;52170;45.018;37.910;2023-05-10T05:54:38;10.19;88.79
65199;HTU21D;52170;45.018;37.910;2023-05-10T05:57:04;10.24;88.63
65199;HTU21D;52170;45.018;37.910;2023-05-10T05:59:30;10.30;88.58
65199;HTU21D;52170;45.018;37.910;2023-05-10T06:01:55;10.39;88.45
65199;HTU21D;52170;45.018;37.910;2023-05-10T06:04:21;10.52;88.25
65199;HTU21D;52170;45.018;37.910;2023-05-10T06:06:47;10.67;87.95
65199;HTU21D;52170;45.018;37.910;2023-05-10T06:09:12;10.82;87.75
65199;HTU21D;52170;45.018;37.910;2023-05-10T06:11:38;10.99;87.39
65199;HTU21D;52170;45.018;37.910;2023-05-10T06:14:05;11.11;87.21
65199;HTU21D;52170;45.018;37.910;2023-05-10T06:16:32;11.24;87.07
65199;HTU21D;52170;45.018;37.910;2023-05-10T06:18:58;11.32;87.00
65199;HTU21D;52170;45.018;37.910;2023-05-10T06:21:23;11.40;86.96
65199;HTU21D;52170;45.018;37.910;2023-05-10T06:23:49;11.43;86.99
65199;HTU21D;52170;45.018;37.910;2023-05-10T06:26:15;11.41;87.12
65199;HTU21D;52170;45.018;37.910;2023-05-10T06:28:41;11.39;87.22
65199;HTU21D;52170;45.018;37.910;2023-05-10T06:31:06;11.33;87.33
65199;HTU21D;52170;45.018;37.910;2023-05-10T06:33:32;11.25;87.56
65199;HTU21D;52170;45.018;37.910;2023-05-10T06:35:58;11.17;87.77
65199;HTU21D;52170;45.018;37.910;2023-05-10T06:38:24;11.14;87.89
65199;HTU21D;52170;45.018;37.910;2023-05-10T06:40:49;11.10;87.87
65199;HTU21D;52170;45.018;37.910;2023-05-10T06:43:16;11.05;87.79
65199;HTU21D;52170;45.018;37.910;2023-05-10T06:45:41;11.01;87.88
65199;HTU21D;52170;45.018;37.910;2023-05-10T06:48:07;11.01;87.81
65199;HTU21D;52170;45.018;37.910;2023-05-10T06:50:33;11.02;87.78
65199;HTU21D;52170;45.018;37.910;2023-05-10T06:52:59;11.07;87.60
65199;HTU21D;52170;45.018;37.910;2023-05-10T06:55:25;11.10;87.48
65199;HTU21D;52170;45.018;37.910;2023-05-10T06:57:51;11.13;87.37
65199;HTU21D;52170;45.018;37.910;2023-05-10T07:00:17;11.16;87.22
65199;HTU21D;52170;45.018;37.910;2023-05-10T07:02:43;11.17;87.17
65199;HTU21D;52170;45.018;37.910;2023-05-10T07:05:08;11.17;87.02
65199;HTU21D;52170;45.018;37.910;2023-05-10T07:07:34;11.18;87.08
65199;HTU21D;52170;45.018;37.910;2023-05-10T07:10:00;11.20;87.11
65199;HTU21D;52170;45.018;37.910;2023-05-10T07:12:26;11.26;86.84
65199;HTU21D;52170;45.018;37.910;2023-05-10T07:14:52;11.31;86.75
65199;HTU21D;52170;45.018;37.910;2023-05-10T07:17:17;11.36;86.62
65199;HTU21D;52170;45.018;37.910;2023-05-10T07:19:43;11.42;86.48
65199;HTU21D;52170;45.018;37.910;2023-05-10T07:22:09;11.46;86.27
65199;HTU21D;52170;45.018;37.910;2023-05-10T07:24:35;11.54;86.23
65199;HTU21D;52170;45.018;37.910;2023-05-10T07:27:00;11.59;86.03
65199;HTU21D;52170;45.018;37.910;2023-05-10T07:29:26;11.69;85.55
65199;HTU21D;52170;45.018;37.910;2023-05-10T07:31:52;11.79;85.71
65199;HTU21D;52170;45.018;37.910;2023-05-10T07:34:18;12.01;85.19
65199;HTU21D;52170;45.018;37.910;2023-05-10T07:36:43;12.22;84.86
65199;HTU21D;52170;45.018;37.910;2023-05-10T07:39:09;12.41;84.60
65199;HTU21D;52170;45.018;37.910;2023-05-10T07:41:35;12.47;84.39
65199;HTU21D;52170;45.018;37.910;2023-05-10T07:44:02;12.44;84.34
65199;HTU21D;52170;45.018;37.910;2023-05-10T07:46:29;12.43;84.37
65199;HTU21D;52170;45.018;37.910;2023-05-10T07:48:54;12.35;84.48
65199;HTU21D;52170;45.018;37.910;2023-05-10T07:51:20;12.27;84.55
65199;HTU21D;52170;45.018;37.910;2023-05-10T07:53:46;12.17;84.94
65199;HTU21D;52170;45.018;37.910;2023-05-10T07:58:46;12.05;85.22
65199;HTU21D;52170;45.018;37.910;2023-05-10T08:01:12;12.02;85.20
65199;HTU21D;52170;45.018;37.910;2023-05-10T08:03:38;11.99;83.90
65199;HTU21D;52170;45.018;37.910;2023-05-10T08:06:03;11.94;84.69
65199;HTU21D;52170;45.018;37.910;2023-05-10T08:08:29;11.91;84.89
65199;HTU21D;52170;45.018;37.910;2023-05-10T08:10:55;11.92;84.90
65199;HTU21D;52170;45.018;37.910;2023-05-10T08:13:21;11.97;84.87
65199;HTU21D;52170;45.018;37.910;2023-05-10T08:15:46;12.02;84.71
65199;HTU21D;52170;45.018;37.910;2023-05-10T08:18:12;12.06;84.65
65199;HTU21D;52170;45.018;37.910;2023-05-10T08:20:38;12.13;84.45
65199;HTU21D;52170;45.018;37.910;2023-05-10T08:23:04;12.19;84.38
65199;HTU21D;52170;45.018;37.910;2023-05-10T08:25:29;12.27;84.16
65199;HTU21D;52170;45.018;37.910;2023-05-10T08:27:55;12.37;84.07
65199;HTU21D;52170;45.018;37.910;2023-05-10T08:30:21;12.48;83.83
65199;HTU21D;52170;45.018;37.910;2023-05-10T08:32:46;12.58;83.68
65199;HTU21D;52170;45.018;37.910;2023-05-10T08:35:12;12.64;83.48
65199;HTU21D;52170;45.018;37.910;2023-05-10T08:37:38;12.72;83.07
65199;HTU21D;52170;45.018;37.910;2023-05-10T08:40:04;12.77;82.99
65199;HTU21D;52170;45.018;37.910;2023-05-10T08:42:30;12.85;82.95
65199;HTU21D;52170;45.018;37.910;2023-05-10T08:44:56;12.95;82.80
65199;HTU21D;52170;45.018;37.910;2023-05-10T08:47:22;13.00;82.58
65199;HTU21D;52170;45.018;37.910;2023-05-10T08:49:48;12.93;82.63
65199;HTU21D;52170;45.018;37.910;2023-05-10T08:52:16;12.86;82.94
65199;HTU21D;52170;45.018;37.910;2023-05-10T08:54:42;12.73;82.39
65199;HTU21D;52170;45.018;37.910;2023-05-10T08:57:10;12.58;82.39
65199;HTU21D;52170;45.018;37.910;2023-05-10T08:59:35;12.40;81.92
65199;HTU21D;52170;45.018;37.910;2023-05-10T09:02:04;12.22;82.71
65199;HTU21D;52170;45.018;37.910;2023-05-10T09:04:30;12.07;82.69
65199;HTU21D;52170;45.018;37.910;2023-05-10T09:06:56;11.98;83.26
65199;HTU21D;52170;45.018;37.910;2023-05-10T09:09:22;11.90;82.73
65199;HTU21D;52170;45.018;37.910;2023-05-10T09:11:49;11.82;83.10
65199;HTU21D;52170;45.018;37.910;2023-05-10T09:14:15;11.76;83.20
65199;HTU21D;52170;45.018;37.910;2023-05-10T09:16:41;11.73;83.22
65199;HTU21D;52170;45.018;37.910;2023-05-10T09:19:07;11.68;83.16
65199;HTU21D;52170;45.018;37.910;2023-05-10T09:21:35;11.66;83.04
65199;HTU21D;52170;45.018;37.910;2023-05-10T09:24:06;11.64;82.88
65199;HTU21D;52170;45.018;37.910;2023-05-10T09:26:32;11.67;83.01
65199;HTU21D;52170;45.018;37.910;2023-05-10T09:28:59;11.73;83.04
65199;HTU21D;52170;45.018;37.910;2023-05-10T09:31:42;11.78;82.97
65199;HTU21D;52170;45.018;37.910;2023-05-10T09:34:09;11.85;82.81
65199;HTU21D;52170;45.018;37.910;2023-05-10T09:36:35;11.97;82.55
65199;HTU21D;52170;45.018;37.910;2023-05-10T09:39:01;12.10;81.62
65199;HTU21D;52170;45.018;37.910;2023-05-10T09:41:27;12.22;81.19
65199;HTU21D;52170;45.018;37.910;2023-05-10T09:43:56;12.35;81.07
65199;HTU21D;52170;45.018;37.910;2023-05-10T09:46:22;12.48;80.66
65199;HTU21D;52170;45.018;37.910;2023-05-10T09:48:51;12.59;80.08
65199;HTU21D;52170;45.018;37.910;2023-05-10T09:51:23;12.69;79.75
65199;HTU21D;52170;45.018;37.910;2023-05-10T09:54:09;12.81;80.00
65199;HTU21D;52170;45.018;37.910;2023-05-10T09:56:35;12.94;79.71
65199;HTU21D;52170;45.018;37.910;2023-05-10T09:59:04;13.05;79.82
65199;HTU21D;52170;45.018;37.910;2023-05-10T10:01:30;13.16;79.46
65199;HTU21D;52170;45.018;37.910;2023-05-10T10:03:56;13.27;79.63
65199;HTU21D;52170;45.018;37.910;2023-05-10T10:06:23;13.39;79.45
65199;HTU21D;52170;45.018;37.910;2023-05-10T10:08:49;13.47;78.88
65199;HTU21D;52170;45.018;37.910;2023-05-10T10:11:15;13.52;78.98
65199;HTU21D;52170;45.018;37.910;2023-05-10T10:13:41;13.62;79.23
65199;HTU21D;52170;45.018;37.910;2023-05-10T10:16:07;13.75;79.00
65199;HTU21D;52170;45.018;37.910;2023-05-10T10:18:33;13.81;78.95
65199;HTU21D;52170;45.018;37.910;2023-05-10T10:20:59;13.78;79.03
65199;HTU21D;52170;45.018;37.910;2023-05-10T10:23:25;13.74;78.69
65199;HTU21D;52170;45.018;37.910;2023-05-10T10:25:52;13.67;77.92
65199;HTU21D;52170;45.018;37.910;2023-05-10T10:28:32;13.52;78.21
65199;HTU21D;52170;45.018;37.910;2023-05-10T10:31:03;13.34;77.55
65199;HTU21D;52170;45.018;37.910;2023-05-10T10:36:22;13.00;77.70
65199;HTU21D;52170;45.018;37.910;2023-05-10T10:49:27;12.37;78.90
65199;HTU21D;52170;45.018;37.910;2023-05-10T10:54:37;12.29;78.14
65199;HTU21D;52170;45.018;37.910;2023-05-10T10:57:12;12.26;78.59
65199;HTU21D;52170;45.018;37.910;2023-05-10T10:59:44;12.25;78.50
65199;HTU21D;52170;45.018;37.910;2023-05-10T11:02:31;12.23;78.66
65199;HTU21D;52170;45.018;37.910;2023-05-10T11:04:56;12.28;78.37
65199;HTU21D;52170;45.018;37.910;2023-05-10T11:07:22;12.33;78.50
65199;HTU21D;52170;45.018;37.910;2023-05-10T11:09:48;12.41;78.48
65199;HTU21D;52170;45.018;37.910;2023-05-10T11:12:14;12.48;77.91
65199;HTU21D;52170;45.018;37.910;2023-05-10T11:14:39;12.58;77.67
65199;HTU21D;52170;45.018;37.910;2023-05-10T11:17:24;12.63;77.60
65199;HTU21D;52170;45.018;37.910;2023-05-10T11:20:09;12.69;77.79
65199;HTU21D;52170;45.018;37.910;2023-05-10T11:22:50;12.73;77.50
65199;HTU21D;52170;45.018;37.910;2023-05-10T11:25:17;12.78;77.59
65199;HTU21D;52170;45.018;37.910;2023-05-10T11:27:43;12.85;77.70
65199;HTU21D;52170;45.018;37.910;2023-05-10T11:30:11;12.93;77.56
65199;HTU21D;52170;45.018;37.910;2023-05-10T11:32:38;13.00;77.40
65199;HTU21D;52170;45.018;37.910;2023-05-10T11:35:07;13.06;77.56
65199;HTU21D;52170;45.018;37.910;2023-05-10T11:37:33;13.12;77.41
65199;HTU21D;52170;45.018;37.910;2023-05-10T11:39:59;13.11;77.24
65199;HTU21D;52170;45.018;37.910;2023-05-10T11:42:25;13.08;76.21
65199;HTU21D;52170;45.018;37.910;2023-05-10T11:44:52;13.01;76.89
65199;HTU21D;52170;45.018;37.910;2023-05-10T11:47:18;12.93;76.53
65199;HTU21D;52170;45.018;37.910;2023-05-10T11:49:44;12.91;76.60
65199;HTU21D;52170;45.018;37.910;2023-05-10T11:52:10;12.92;76.63
65199;HTU21D;52170;45.018;37.910;2023-05-10T11:54:51;12.94;76.70
65199;HTU21D;52170;45.018;37.910;2023-05-10T11:57:20;13.03;76.75
65199;HTU21D;52170;45.018;37.910;2023-05-10T11:59:46;13.10;76.04
65199;HTU21D;52170;45.018;37.910;2023-05-10T12:02:14;13.12;75.73
65199;HTU21D;52170;45.018;37.910;2023-05-10T12:04:40;13.17;75.44
65199;HTU21D;52170;45.018;37.910;2023-05-10T12:07:06;13.23;74.51
65199;HTU21D;52170;45.018;37.910;2023-05-10T12:09:32;13.34;75.44
65199;HTU21D;52170;45.018;37.910;2023-05-10T12:11:58;13.46;75.25
65199;HTU21D;52170;45.018;37.910;2023-05-10T12:14:23;13.58;74.87
65199;HTU21D;52170;45.018;37.910;2023-05-10T12:16:49;13.66;74.44
65199;HTU21D;52170;45.018;37.910;2023-05-10T12:19:19;13.73;74.92
65199;HTU21D;52170;45.018;37.910;2023-05-10T12:21:46;13.80;74.41
65199;HTU21D;52170;45.018;37.910;2023-05-10T12:24:12;13.86;74.84
65199;HTU21D;52170;45.018;37.910;2023-05-10T12:26:38;13.92;74.44
65199;HTU21D;52170;45.018;37.910;2023-05-10T12:29:19;13.94;74.09
65199;HTU21D;52170;45.018;37.910;2023-05-10T12:31:55;13.99;73.86
65199;HTU21D;52170;45.018;37.910;2023-05-10T12:34:25;14.09;73.86
65199;HTU21D;52170;45.018;37.910;2023-05-10T12:36:54;14.18;74.02
65199;HTU21D;52170;45.018;37.910;2023-05-10T12:39:20;14.17;73.24
65199;HTU21D;52170;45.018;37.910;2023-05-10T12:41:45;14.30;71.77
65199;HTU21D;52170;45.018;37.910;2023-05-10T12:44:11;14.56;70.47
65199;HTU21D;52170;45.018;37.910;2023-05-10T12:46:37;14.71;71.72
65199;HTU21D;52170;45.018;37.910;2023-05-10T12:49:03;14.64;71.40
65199;HTU21D;52170;45.018;37.910;2023-05-10T12:51:28;14.54;71.37
65199;HTU21D;52170;45.018;37.910;2023-05-10T12:53:54;14.62;71.72
65199;HTU21D;52170;45.018;37.910;2023-05-10T12:56:20;14.77;68.42
65199;HTU21D;52170;45.018;37.910;2023-05-10T12:58:46;14.85;71.03
65199;HTU21D;52170;45.018;37.910;2023-05-10T13:01:16;14.86;70.95
65199;HTU21D;52170;45.018;37.910;2023-05-10T13:03:42;14.96;70.77
65199;HTU21D;52170;45.018;37.910;2023-05-10T13:06:11;15.06;70.71
65199;HTU21D;52170;45.018;37.910;2023-05-10T13:08:38;15.23;70.19
65199;HTU21D;52170;45.018;37.910;2023-05-10T13:11:05;15.33;70.14
65199;HTU21D;52170;45.018;37.910;2023-05-10T13:13:31;15.38;69.42
65199;HTU21D;52170;45.018;37.910;2023-05-10T13:15:56;15.45;70.19
65199;HTU21D;52170;45.018;37.910;2023-05-10T13:18:22;15.48;67.93
65199;HTU21D;52170;45.018;37.910;2023-05-10T13:20:48;15.54;68.87
65199;HTU21D;52170;45.018;37.910;2023-05-10T13:23:14;15.52;63.89
65199;HTU21D;52170;45.018;37.910;2023-05-10T13:25:40;15.55;68.21
65199;HTU21D;52170;45.018;37.910;2023-05-10T13:28:06;15.61;68.36
65199;HTU21D;52170;45.018;37.910;2023-05-10T13:30:32;15.65;66.14
65199;HTU21D;52170;45.018;37.910;2023-05-10T13:32:57;15.60;67.81
65199;HTU21D;52170;45.018;37.910;2023-05-10T13:35:23;15.45;68.44
65199;HTU21D;52170;45.018;37.910;2023-05-10T13:37:49;15.28;68.87
65199;HTU21D;52170;45.018;37.910;2023-05-10T13:40:14;15.11;69.10
65199;HTU21D;52170;45.018;37.910;2023-05-10T13:42:41;14.99;69.06
65199;HTU21D;52170;45.018;37.910;2023-05-10T13:45:06;15.02;68.72
65199;HTU21D;52170;45.018;37.910;2023-05-10T13:47:32;15.07;68.91
65199;HTU21D;52170;45.018;37.910;2023-05-10T13:49:58;15.13;66.00
65199;HTU21D;52170;45.018;37.910;2023-05-10T13:52:24;15.17;67.20
65199;HTU21D;52170;45.018;37.910;2023-05-10T13:54:49;15.16;67.59
65199;HTU21D;52170;45.018;37.910;2023-05-10T13:57:17;15.14;66.55
65199;HTU21D;52170;45.018;37.910;2023-05-10T13:59:43;15.08;67.16
65199;HTU21D;52170;45.018;37.910;2023-05-10T14:02:09;14.98;68.11
65199;HTU21D;52170;45.018;37.910;2023-05-10T14:04:34;14.92;68.48
65199;HTU21D;52170;45.018;37.910;2023-05-10T14:07:00;14.82;68.61
65199;HTU21D;52170;45.018;37.910;2023-05-10T14:09:26;14.80;68.90
65199;HTU21D;52170;45.018;37.910;2023-05-10T14:11:52;14.78;68.31
65199;HTU21D;52170;45.018;37.910;2023-05-10T14:14:18;14.57;68.49
65199;HTU21D;52170;45.018;37.910;2023-05-10T14:16:44;14.48;68.42
65199;HTU21D;52170;45.018;37.910;2023-05-10T14:19:10;14.52;68.02
65199;HTU21D;52170;45.018;37.910;2023-05-10T14:21:37;14.57;67.81
65199;HTU21D;52170;45.018;37.910;2023-05-10T14:24:03;14.60;67.44
65199;HTU21D;52170;45.018;37.910;2023-05-10T14:26:28;14.59;67.45
65199;HTU21D;52170;45.018;37.910;2023-05-10T14:28:54;14.58;67.37
65199;HTU21D;52170;45.018;37.910;2023-05-10T14:31:20;14.57;66.39
65199;HTU21D;52170;45.018;37.910;2023-05-10T14:33:46;14.45;66.64
65199;HTU21D;52170;45.018;37.910;2023-05-10T14:36:13;14.39;66.94
65199;HTU21D;52170;45.018;37.910;2023-05-10T14:38:39;14.39;67.01
65199;HTU21D;52170;45.018;37.910;2023-05-10T14:41:05;14.35;66.38
65199;HTU21D;52170;45.018;37.910;2023-05-10T14:43:31;14.22;66.85
65199;HTU21D;52170;45.018;37.910;2023-05-10T14:45:57;14.11;67.20
65199;HTU21D;52170;45.018;37.910;2023-05-10T14:48:23;14.01;67.31
65199;HTU21D;52170;45.018;37.910;2023-05-10T14:50:49;13.91;67.55
65199;HTU21D;52170;45.018;37.910;2023-05-10T14:53:16;13.85;67.59
65199;HTU21D;52170;45.018;37.910;2023-05-10T14:55:41;13.75;67.39
65199;HTU21D;52170;45.018;37.910;2023-05-10T14:58:07;13.62;67.09
65199;HTU21D;52170;45.018;37.910;2023-05-10T15:00:33;13.50;67.74
65199;HTU21D;52170;45.018;37.910;2023-05-10T15:02:58;13.38;68.29
65199;HTU21D;52170;45.018;37.910;2023-05-10T15:05:24;13.27;68.36
65199;HTU21D;52170;45.018;37.910;2023-05-10T15:07:50;13.16;68.46
65199;HTU21D;52170;45.018;37.910;2023-05-10T15:10:16;13.03;68.57
65199;HTU21D;52170;45.018;37.910;2023-05-10T15:12:41;12.90;68.97
65199;HTU21D;52170;45.018;37.910;2023-05-10T15:15:07;12.78;69.00
65199;HTU21D;52170;45.018;37.910;2023-05-10T15:17:33;12.70;69.34
65199;HTU21D;52170;45.018;37.910;2023-05-10T15:19:59;12.58;68.91
65199;HTU21D;52170;45.018;37.910;2023-05-10T15:22:24;12.49;69.54
65199;HTU21D;52170;45.018;37.910;2023-05-10T15:24:50;12.43;69.64
65199;HTU21D;52170;45.018;37.910;2023-05-10T15:27:16;12.34;69.57
65199;HTU21D;52170;45.018;37.910;2023-05-10T15:29:42;12.25;69.84
65199;HTU21D;52170;45.018;37.910;2023-05-10T15:32:08;12.17;69.94
65199;HTU21D;52170;45.018;37.910;2023-05-10T15:34:33;12.13;70.20
65199;HTU21D;52170;45.018;37.910;2023-05-10T15:36:59;12.06;70.30
65199;HTU21D;52170;45.018;37.910;2023-05-10T15:39:25;12.00;70.48